createdAt,value
2023-05-01T00:00:00.698Z,1.73
2023-05-01T00:01:00.720Z,1.76
2023-05-01T00:02:00.698Z,1.78
2023-05-01T00:03:00.824Z,1.81
2023-05-01T00:04:00.888Z,1.84
2023-05-01T00:05:00.800Z,1.88
2023-05-01T00:06:00.643Z,1.85
2023-05-01T00:07:00.645Z,1.85
2023-05-01T00:08:00.620Z,1.78
2023-05-01T00:09:00.603Z,1.77
2023-05-01T00:10:00.593Z,1.73
2023-05-01T00:11:00.583Z,1.68
2023-05-01T00:12:00.613Z,1.70
2023-05-01T00:13:00.547Z,1.74
2023-05-01T00:14:00.563Z,1.80
2023-05-01T00:15:00.561Z,1.85
2023-05-01T00:16:00.534Z,1.91
2023-05-01T00:17:00.526Z,1.94
2023-05-01T00:18:00.517Z,1.97
2023-05-01T00:19:00.509Z,2.04
2023-05-01T00:20:00.485Z,2.15
2023-05-01T00:21:00.458Z,2.29
2023-05-01T00:22:00.497Z,2.36
2023-05-01T00:23:00.454Z,2.42
2023-05-01T00:24:00.472Z,2.43
2023-05-01T00:25:00.428Z,2.49
2023-05-01T00:26:00.412Z,2.64
2023-05-01T00:27:00.441Z,2.69
2023-05-01T00:28:00.395Z,2.77
2023-05-01T00:29:00.384Z,2.85
2023-05-01T00:30:00.367Z,2.90
2023-05-01T00:31:00.367Z,2.95
2023-05-01T00:32:00.425Z,3.01
2023-05-01T00:33:00.364Z,3.03
2023-05-01T00:34:00.332Z,3.03
2023-05-01T00:35:00.328Z,2.95
2023-05-01T00:36:00.315Z,2.85
2023-05-01T00:37:00.342Z,2.82
2023-05-01T00:38:00.277Z,2.74
2023-05-01T00:39:00.265Z,2.71
2023-05-01T00:40:00.287Z,2.65
2023-05-01T00:41:00.237Z,2.57
2023-05-01T00:42:00.248Z,2.53
2023-05-01T00:43:00.235Z,2.54
2023-05-01T00:44:00.196Z,2.54
2023-05-01T00:45:00.210Z,2.57
2023-05-01T00:46:00.334Z,2.56
2023-05-01T00:47:00.234Z,2.54
2023-05-01T00:48:00.269Z,2.50
2023-05-01T00:49:00.179Z,2.46
2023-05-01T00:50:00.188Z,2.39
2023-05-01T00:51:00.170Z,2.31
2023-05-01T00:52:00.186Z,2.28
2023-05-01T00:53:00.158Z,2.22
2023-05-01T00:54:00.170Z,2.14
2023-05-01T00:55:00.127Z,2.07
2023-05-01T00:56:00.088Z,1.99
2023-05-01T00:57:00.093Z,1.94
2023-05-01T00:58:00.074Z,1.95
2023-05-01T00:59:00.065Z,1.94
2023-05-01T01:00:00.067Z,1.92
2023-05-01T01:01:00.054Z,1.94
2023-05-01T01:02:00.058Z,1.92
2023-05-01T01:03:00.053Z,1.91
2023-05-01T01:04:00.048Z,1.85
2023-05-01T01:05:00.034Z,1.87
2023-05-01T01:05:59.982Z,1.91
2023-05-01T01:07:00.005Z,1.88
2023-05-01T01:07:59.939Z,1.87
2023-05-01T01:08:59.924Z,1.84
2023-05-01T01:09:59.925Z,1.77
2023-05-01T01:10:59.921Z,1.73
2023-05-01T01:11:59.924Z,1.67
2023-05-01T01:12:59.883Z,1.63
2023-05-01T01:13:59.877Z,1.66
2023-05-01T01:14:59.850Z,1.60
2023-05-01T01:15:59.846Z,1.49
2023-05-01T01:16:59.921Z,1.35
2023-05-01T01:17:59.869Z,1.32
2023-05-01T01:18:59.813Z,1.32
2023-05-01T01:19:59.811Z,1.34
2023-05-01T01:20:59.795Z,1.37
2023-05-01T01:21:59.829Z,1.38
2023-05-01T01:22:59.786Z,1.42
2023-05-01T01:23:59.781Z,1.42
2023-05-01T01:24:59.761Z,1.48
2023-05-01T01:25:59.795Z,1.42
2023-05-01T01:26:59.710Z,1.35
2023-05-01T01:27:59.775Z,1.31
2023-05-01T01:28:59.709Z,1.30
2023-05-01T01:29:59.700Z,1.28
2023-05-01T01:30:59.715Z,1.30
2023-05-01T01:31:59.673Z,1.22
2023-05-01T01:32:59.752Z,1.19
2023-05-01T01:33:59.661Z,1.22
2023-05-01T01:34:59.625Z,1.20
2023-05-01T01:35:59.629Z,1.20
2023-05-01T01:36:59.616Z,1.22
2023-05-01T01:37:59.649Z,1.20
2023-05-01T01:38:59.609Z,1.14
2023-05-01T01:39:59.590Z,0.98
2023-05-01T01:40:59.605Z,0.91
2023-05-01T01:41:59.582Z,0.80
2023-05-01T01:42:59.596Z,0.76
2023-05-01T01:43:59.545Z,0.73
2023-05-01T01:44:59.522Z,0.74
2023-05-01T01:45:59.550Z,0.77
2023-05-01T01:46:59.514Z,0.86
2023-05-01T01:47:59.590Z,0.92
2023-05-01T01:48:59.488Z,0.92
2023-05-01T01:49:59.495Z,0.83
2023-05-01T01:50:59.466Z,0.73
2023-05-01T01:51:59.452Z,0.68
2023-05-01T01:52:59.461Z,0.65
2023-05-01T01:53:59.445Z,0.63
2023-05-01T01:54:59.419Z,0.69
2023-05-01T01:56:00.787Z,0.77
2023-05-01T01:56:59.383Z,0.80
2023-05-01T01:57:59.434Z,0.81
2023-05-01T01:58:59.364Z,0.78
2023-05-01T01:59:59.348Z,0.68
2023-05-01T02:00:59.334Z,0.60
2023-05-01T02:01:59.504Z,0.60
2023-05-01T02:02:59.429Z,0.60
2023-05-01T02:03:59.368Z,0.56
2023-05-01T02:04:59.311Z,0.52
2023-05-01T02:05:59.344Z,0.58
2023-05-01T02:06:59.302Z,0.58
2023-05-01T02:07:59.349Z,0.56
2023-05-01T02:08:59.269Z,0.49
2023-05-01T02:09:59.437Z,0.46
2023-05-01T02:11:01.113Z,0.46
2023-05-01T02:11:59.230Z,0.46
2023-05-01T02:12:59.274Z,0.49
2023-05-01T02:13:59.206Z,0.49
2023-05-01T02:14:59.185Z,0.47
2023-05-01T02:15:59.225Z,0.44
2023-05-01T02:16:59.154Z,0.43
2023-05-01T02:17:59.308Z,0.46
2023-05-01T02:18:59.142Z,0.49
2023-05-01T02:19:59.135Z,0.58
2023-05-01T02:20:59.130Z,0.62
2023-05-01T02:21:59.112Z,0.58
2023-05-01T02:22:59.139Z,0.56
2023-05-01T02:23:59.083Z,0.55
2023-05-01T02:24:59.078Z,0.52
2023-05-01T02:25:59.071Z,0.52
2023-05-01T02:26:59.062Z,0.52
2023-05-01T02:27:59.089Z,0.55
2023-05-01T02:28:59.033Z,0.52
2023-05-01T02:29:59.217Z,0.50
2023-05-01T02:30:59.026Z,0.39
2023-05-01T02:31:59.189Z,0.34
2023-05-01T02:32:59.061Z,0.31
2023-05-01T02:33:58.974Z,0.28
2023-05-01T02:34:58.960Z,0.22
2023-05-01T02:35:58.962Z,0.25
2023-05-01T02:36:58.954Z,0.29
2023-05-01T02:37:58.978Z,0.32
2023-05-01T02:38:58.908Z,0.34
2023-05-01T02:39:59.107Z,0.29
2023-05-01T02:40:58.900Z,0.19
2023-05-01T02:41:58.920Z,0.10
2023-05-01T02:42:58.921Z,0.05
2023-05-01T02:43:58.874Z,0.11
2023-05-01T02:44:58.860Z,0.16
2023-05-01T02:45:59.096Z,0.19
2023-05-01T02:46:58.858Z,0.25
2023-05-01T02:47:58.893Z,0.36
2023-05-01T02:48:58.815Z,0.41
2023-05-01T02:49:59.059Z,0.46
2023-05-01T02:50:58.796Z,0.49
2023-05-01T02:51:58.787Z,0.55
2023-05-01T02:52:58.828Z,0.52
2023-05-01T02:53:58.787Z,0.50
2023-05-01T02:54:58.741Z,0.46
2023-05-01T02:55:58.724Z,0.41
2023-05-01T02:56:58.726Z,0.41
2023-05-01T02:57:58.761Z,0.43
2023-05-01T02:58:58.694Z,0.46
2023-05-01T02:59:58.701Z,0.41
2023-05-01T03:00:58.706Z,0.34
2023-05-01T03:01:58.682Z,0.22
2023-05-01T03:02:58.759Z,0.16
2023-05-01T03:03:58.737Z,0.19
2023-05-01T03:04:58.711Z,0.19
2023-05-01T03:05:58.681Z,0.18
2023-05-01T03:06:58.651Z,0.16
2023-05-01T03:07:58.691Z,0.19
2023-05-01T03:08:58.595Z,0.19
2023-05-01T03:09:58.720Z,0.22
2023-05-01T03:10:58.575Z,0.21
2023-05-01T03:11:58.555Z,0.18
2023-05-01T03:12:58.582Z,0.11
2023-05-01T03:13:58.553Z,0.08
2023-05-01T03:14:58.534Z,0.05
2023-05-01T03:15:58.540Z,0.07
2023-05-01T03:16:58.626Z,0.07
2023-05-01T03:17:58.559Z,0.04
2023-05-01T03:18:58.474Z,0.04
2023-05-01T03:19:58.602Z,0.04
2023-05-01T03:20:58.472Z,0.03
2023-05-01T03:21:58.469Z,0.00
2023-05-01T03:22:58.480Z,0.08
2023-05-01T03:23:58.435Z,0.16
2023-05-01T03:24:58.396Z,0.19
2023-05-01T03:25:58.407Z,0.22
2023-05-01T03:26:58.388Z,0.21
2023-05-01T03:27:58.396Z,0.16
2023-05-01T03:28:58.413Z,0.12
2023-05-01T03:29:58.457Z,0.16
2023-05-01T03:30:58.354Z,0.11
2023-05-01T03:31:58.430Z,0.10
2023-05-01T03:32:58.347Z,0.10
2023-05-01T03:33:58.366Z,0.08
2023-05-01T03:34:58.373Z,0.07
2023-05-01T03:35:58.293Z,0.03
2023-05-01T03:36:58.306Z,-0.10
2023-05-01T03:37:58.270Z,-0.07
2023-05-01T03:38:58.298Z,-0.07
2023-05-01T03:39:58.428Z,-0.03
2023-05-01T03:40:58.242Z,-0.02
2023-05-01T03:41:58.232Z,0.00
2023-05-01T03:42:58.208Z,0.01
2023-05-01T03:43:58.244Z,0.00
2023-05-01T03:44:58.197Z,0.00
2023-05-01T03:45:58.229Z,0.01
2023-05-01T03:46:58.170Z,0.07
2023-05-01T03:47:58.206Z,0.19
2023-05-01T03:48:58.191Z,0.36
2023-05-01T03:49:58.381Z,0.47
2023-05-01T03:50:58.145Z,0.50
2023-05-01T03:51:58.128Z,0.56
2023-05-01T03:52:58.119Z,0.63
2023-05-01T03:53:58.133Z,0.68
2023-05-01T03:54:58.101Z,0.69
2023-05-01T03:55:58.080Z,0.74
2023-05-01T03:56:58.078Z,0.78
2023-05-01T03:57:58.082Z,0.78
2023-05-01T03:58:58.087Z,0.83
2023-05-01T03:59:58.271Z,0.87
2023-05-01T04:00:58.033Z,0.91
2023-05-01T04:01:58.058Z,0.96
2023-05-01T04:02:58.257Z,0.98
2023-05-01T04:03:58.303Z,1.08
2023-05-01T04:04:57.979Z,1.14
2023-05-01T04:05:58.058Z,1.26
2023-05-01T04:06:57.959Z,1.38
2023-05-01T04:07:57.976Z,1.52
2023-05-01T04:08:57.951Z,1.68
2023-05-01T04:09:58.087Z,1.87
2023-05-01T04:10:57.907Z,1.99
2023-05-01T04:11:57.893Z,2.07
2023-05-01T04:12:57.884Z,2.18
2023-05-01T04:13:57.904Z,2.31
2023-05-01T04:14:57.898Z,2.43
2023-05-01T04:15:57.950Z,2.50
2023-05-01T04:16:57.827Z,2.67
2023-05-01T04:17:57.874Z,2.87
2023-05-01T04:18:57.822Z,3.08
2023-05-01T04:19:58.252Z,3.34
2023-05-01T04:20:57.805Z,3.55
2023-05-01T04:21:57.804Z,3.70
2023-05-01T04:22:57.768Z,3.96
2023-05-01T04:23:57.760Z,4.30
2023-05-01T04:24:57.787Z,4.66
2023-05-01T04:25:57.747Z,5.12
2023-05-01T04:26:57.762Z,5.50
2023-05-01T04:27:57.738Z,5.82
2023-05-01T04:28:57.744Z,5.94
2023-05-01T04:29:58.266Z,6.17
2023-05-01T04:30:57.727Z,6.31
2023-05-01T04:31:57.849Z,6.67
2023-05-01T04:32:57.720Z,7.13
2023-05-01T04:33:57.677Z,7.48
2023-05-01T04:34:58.007Z,7.75
2023-05-01T04:35:57.640Z,7.97
2023-05-01T04:36:57.626Z,8.37
2023-05-01T04:37:57.625Z,8.48
2023-05-01T04:38:57.597Z,8.70
2023-05-01T04:39:58.045Z,8.84
2023-05-01T04:40:57.574Z,8.82
2023-05-01T04:41:57.572Z,8.70
2023-05-01T04:42:57.546Z,8.49
2023-05-01T04:43:57.552Z,8.44
2023-05-01T04:44:57.558Z,8.52
2023-05-01T04:45:57.517Z,8.51
2023-05-01T04:46:57.567Z,8.26
2023-05-01T04:47:57.583Z,8.13
2023-05-01T04:48:57.456Z,8.19
2023-05-01T04:49:57.668Z,8.20
2023-05-01T04:50:57.467Z,8.18
2023-05-01T04:51:57.441Z,8.12
2023-05-01T04:52:57.433Z,8.15
2023-05-01T04:53:57.470Z,8.41
2023-05-01T04:54:57.408Z,8.46
2023-05-01T04:55:57.395Z,8.31
2023-05-01T04:56:57.381Z,8.36
2023-05-01T04:57:57.376Z,8.55
2023-05-01T04:58:57.400Z,8.64
2023-05-01T04:59:57.852Z,8.44
2023-05-01T05:00:57.354Z,8.53
2023-05-01T05:01:57.486Z,8.78
2023-05-01T05:02:57.430Z,8.91
2023-05-01T05:03:57.586Z,9.10
2023-05-01T05:04:57.287Z,8.99
2023-05-01T05:05:57.341Z,8.94
2023-05-01T05:06:57.287Z,9.13
2023-05-01T05:07:57.306Z,9.43
2023-05-01T05:08:57.261Z,9.87
2023-05-01T05:09:57.521Z,10.20
2023-05-01T05:10:57.241Z,10.12
2023-05-01T05:11:57.213Z,10.64
2023-05-01T05:12:57.248Z,10.92
2023-05-01T05:13:57.220Z,11.11
2023-05-01T05:14:57.246Z,11.15
2023-05-01T05:15:57.175Z,11.26
2023-05-01T05:16:57.189Z,11.59
2023-05-01T05:17:57.260Z,11.72
2023-05-01T05:18:57.147Z,11.65
2023-05-01T05:19:57.307Z,11.66
2023-05-01T05:20:57.127Z,11.45
2023-05-01T05:21:57.116Z,11.23
2023-05-01T05:22:57.116Z,11.60
2023-05-01T05:23:57.093Z,11.33
2023-05-01T05:24:57.110Z,11.19
2023-05-01T05:25:57.069Z,11.07
2023-05-01T05:26:57.065Z,10.74
2023-05-01T05:27:57.036Z,10.72
2023-05-01T05:28:57.044Z,10.72
2023-05-01T05:29:57.201Z,10.76
2023-05-01T05:30:57.012Z,10.96
2023-05-01T05:31:57.028Z,10.90
2023-05-01T05:32:57.045Z,11.23
2023-05-01T05:33:56.971Z,11.77
2023-05-01T05:34:57.008Z,11.97
2023-05-01T05:35:56.953Z,11.97
2023-05-01T05:36:56.943Z,12.03
2023-05-01T05:37:56.919Z,12.04
2023-05-01T05:38:56.932Z,12.18
2023-05-01T05:39:57.214Z,12.39
2023-05-01T05:40:56.891Z,12.37
2023-05-01T05:41:56.901Z,12.75
2023-05-01T05:42:56.864Z,12.31
2023-05-01T05:43:56.865Z,11.95
2023-05-01T05:44:56.883Z,12.09
2023-05-01T05:45:56.896Z,12.20
2023-05-01T05:46:56.829Z,11.52
2023-05-01T05:47:56.937Z,11.68
2023-05-01T05:48:56.798Z,12.36
2023-05-01T05:49:56.992Z,12.37
2023-05-01T05:50:56.787Z,12.76
2023-05-01T05:51:56.793Z,12.85
2023-05-01T05:52:56.778Z,12.75
2023-05-01T05:53:56.743Z,12.53
2023-05-01T05:54:56.830Z,12.90
2023-05-01T05:55:56.740Z,13.31
2023-05-01T05:56:56.739Z,13.18
2023-05-01T05:57:56.736Z,13.52
2023-05-01T05:58:56.699Z,13.72
2023-05-01T05:59:56.958Z,13.93
2023-05-01T06:00:56.679Z,13.97
2023-05-01T06:01:56.675Z,13.60
2023-05-01T06:02:56.770Z,13.59
2023-05-01T06:03:56.743Z,13.74
2023-05-01T06:04:56.671Z,13.63
2023-05-01T06:05:56.765Z,13.22
2023-05-01T06:06:56.682Z,12.22
2023-05-01T06:07:56.596Z,12.39
2023-05-01T06:08:56.606Z,12.72
2023-05-01T06:09:56.801Z,12.62
2023-05-01T06:10:56.577Z,12.18
2023-05-01T06:11:56.542Z,12.24
2023-05-01T06:13:05.451Z,12.93
2023-05-01T06:13:57.532Z,13.01
2023-05-01T06:14:56.552Z,13.70
2023-05-01T06:15:56.531Z,13.59
2023-05-01T06:16:56.486Z,13.59
2023-05-01T06:17:56.565Z,13.85
2023-05-01T06:18:56.496Z,13.49
2023-05-01T06:19:56.695Z,13.81
2023-05-01T06:20:56.433Z,14.03
2023-05-01T06:21:56.428Z,13.74
2023-05-01T06:22:56.431Z,14.35
2023-05-01T06:23:56.442Z,14.94
2023-05-01T06:24:56.422Z,14.91
2023-05-01T06:25:56.384Z,15.49
2023-05-01T06:26:56.382Z,15.98
2023-05-01T06:27:56.376Z,16.02
2023-05-01T06:28:56.410Z,14.97
2023-05-01T06:29:56.654Z,15.52
2023-05-01T06:30:56.363Z,15.82
2023-05-01T06:31:56.410Z,15.28
2023-05-01T06:32:56.368Z,14.60
2023-05-01T06:33:56.342Z,14.84
2023-05-01T06:34:56.291Z,14.45
2023-05-01T06:35:56.274Z,14.85
2023-05-01T06:36:56.290Z,15.02
2023-05-01T06:37:56.321Z,15.36
2023-05-01T06:38:56.232Z,15.33
2023-05-01T06:39:56.466Z,14.86
2023-05-01T06:40:56.218Z,14.45
2023-05-01T06:41:56.196Z,14.55
2023-05-01T06:42:56.187Z,14.94
2023-05-01T06:43:56.213Z,15.27
2023-05-01T06:44:56.197Z,15.37
2023-05-01T06:45:56.167Z,15.04
2023-05-01T06:46:56.171Z,15.90
2023-05-01T06:47:56.182Z,16.50
2023-05-01T06:48:56.107Z,16.29
2023-05-01T06:49:56.440Z,16.32
2023-05-01T06:50:56.116Z,16.74
2023-05-01T06:51:56.105Z,16.90
2023-05-01T06:52:56.093Z,16.28
2023-05-01T06:53:56.070Z,16.35
2023-05-01T06:54:56.097Z,16.20
2023-05-01T06:55:56.058Z,16.04
2023-05-01T06:56:56.054Z,16.00
2023-05-01T06:57:56.031Z,15.52
2023-05-01T06:58:56.026Z,15.44
2023-05-01T06:59:56.288Z,15.80
2023-05-01T07:00:56.047Z,15.79
2023-05-01T07:01:56.001Z,16.00
2023-05-01T07:02:56.073Z,16.28
2023-05-01T07:03:55.961Z,15.94
2023-05-01T07:04:55.977Z,15.79
2023-05-01T07:05:55.951Z,15.49
2023-05-01T07:06:55.939Z,15.70
2023-05-01T07:08:01.297Z,16.02
2023-05-01T07:08:56.925Z,16.56
2023-05-01T07:09:56.058Z,17.14
2023-05-01T07:10:55.899Z,17.30
2023-05-01T07:11:55.881Z,17.44
2023-05-01T07:12:55.879Z,17.63
2023-05-01T07:13:55.846Z,17.41
2023-05-01T07:14:55.889Z,17.86
2023-05-01T07:15:55.848Z,16.93
2023-05-01T07:16:55.910Z,17.12
2023-05-01T07:17:55.807Z,17.72
2023-05-01T07:18:55.787Z,18.11
2023-05-01T07:19:56.097Z,17.78
2023-05-01T07:20:55.763Z,17.27
2023-05-01T07:21:55.773Z,17.80
2023-05-01T07:22:55.783Z,17.11
2023-05-01T07:23:55.720Z,17.31
2023-05-01T07:24:55.779Z,17.22
2023-05-01T07:25:55.696Z,17.09
2023-05-01T07:26:55.720Z,16.91
2023-05-01T07:27:55.712Z,17.30
2023-05-01T07:28:55.691Z,18.01
2023-05-01T07:29:55.908Z,18.52
2023-05-01T07:30:55.669Z,18.75
2023-05-01T07:31:55.733Z,18.73
2023-05-01T07:32:55.691Z,19.12
2023-05-01T07:33:55.626Z,19.33
2023-05-01T07:34:55.662Z,18.83
2023-05-01T07:35:55.602Z,19.26
2023-05-01T07:36:55.594Z,20.36
2023-05-01T07:37:55.596Z,20.59
2023-05-01T07:38:55.586Z,18.96
2023-05-01T07:39:55.958Z,18.41
2023-05-01T07:40:55.571Z,18.78
2023-05-01T07:41:55.540Z,19.48
2023-05-01T07:42:55.555Z,19.29
2023-05-01T07:43:55.497Z,19.64
2023-05-01T07:44:55.544Z,18.66
2023-05-01T07:45:55.508Z,18.96
2023-05-01T07:46:55.471Z,19.64
2023-05-01T07:47:55.532Z,19.73
2023-05-01T07:48:55.458Z,19.44
2023-05-01T07:49:55.872Z,18.98
2023-05-01T07:50:55.443Z,18.29
2023-05-01T07:51:55.422Z,18.74
2023-05-01T07:52:55.418Z,19.36
2023-05-01T07:53:55.410Z,19.36
2023-05-01T07:54:55.422Z,19.21
2023-05-01T07:55:55.367Z,18.81
2023-05-01T07:56:55.370Z,17.90
2023-05-01T07:57:55.360Z,17.68
2023-05-01T07:58:55.353Z,18.83
2023-05-01T07:59:55.646Z,19.76
2023-05-01T08:00:55.294Z,19.55
2023-05-01T08:01:55.352Z,19.69
2023-05-01T08:02:55.555Z,20.37
2023-05-01T08:03:55.409Z,21.37
2023-05-01T08:04:55.503Z,22.06
2023-05-01T08:05:55.290Z,22.44
2023-05-01T08:06:55.375Z,22.85
2023-05-01T08:07:55.220Z,20.92
2023-05-01T08:08:55.251Z,19.63
2023-05-01T08:09:57.868Z,19.27
2023-05-01T08:10:55.241Z,19.19
2023-05-01T08:11:55.198Z,19.37
2023-05-01T08:12:55.216Z,19.54
2023-05-01T08:13:55.146Z,19.82
2023-05-01T08:14:55.215Z,20.59
2023-05-01T08:15:55.353Z,20.95
2023-05-01T08:16:55.144Z,21.06
2023-05-01T08:17:55.142Z,20.63
2023-05-01T08:18:55.161Z,20.88
2023-05-01T08:19:55.397Z,20.47
2023-05-01T08:20:55.122Z,20.52
2023-05-01T08:21:55.084Z,20.87
2023-05-01T08:22:55.070Z,21.02
2023-05-01T08:23:55.054Z,21.02
2023-05-01T08:24:55.082Z,20.87
2023-05-01T08:25:55.047Z,20.81
2023-05-01T08:26:55.025Z,20.52
2023-05-01T08:27:55.001Z,20.66
2023-05-01T08:28:55.007Z,20.41
2023-05-01T08:29:55.275Z,20.84
2023-05-01T08:30:54.985Z,21.15
2023-05-01T08:31:55.158Z,21.09
2023-05-01T08:32:55.039Z,21.12
2023-05-01T08:33:54.944Z,21.18
2023-05-01T08:34:55.008Z,21.43
2023-05-01T08:35:54.926Z,21.20
2023-05-01T08:36:54.936Z,20.52
2023-05-01T08:37:54.915Z,21.09
2023-05-01T08:38:54.885Z,21.54
2023-05-01T08:39:55.140Z,19.84
2023-05-01T08:40:54.855Z,19.73
2023-05-01T08:41:54.855Z,19.95
2023-05-01T08:42:54.844Z,19.92
2023-05-01T08:43:54.876Z,19.63
2023-05-01T08:44:54.843Z,20.34
2023-05-01T08:45:54.914Z,20.50
2023-05-01T08:46:54.864Z,21.03
2023-05-01T08:47:54.895Z,20.95
2023-05-01T08:48:54.787Z,21.20
2023-05-01T08:49:55.039Z,20.55
2023-05-01T08:50:54.830Z,20.31
2023-05-01T08:51:54.743Z,20.16
2023-05-01T08:52:54.763Z,20.32
2023-05-01T08:53:54.736Z,20.72
2023-05-01T08:54:54.726Z,21.29
2023-05-01T08:55:54.756Z,21.35
2023-05-01T08:56:54.693Z,20.84
2023-05-01T08:57:54.693Z,20.22
2023-05-01T08:58:54.694Z,20.62
2023-05-01T08:59:54.811Z,21.22
2023-05-01T09:00:54.698Z,21.54
2023-05-01T09:01:54.711Z,20.75
2023-05-01T09:02:54.646Z,21.39
2023-05-01T09:03:54.684Z,22.29
2023-05-01T09:04:54.617Z,22.43
2023-05-01T09:05:54.630Z,22.75
2023-05-01T09:06:54.619Z,23.02
2023-05-01T09:07:54.582Z,23.20
2023-05-01T09:08:54.550Z,22.88
2023-05-01T09:09:54.794Z,22.98
2023-05-01T09:10:54.580Z,22.88
2023-05-01T09:11:54.530Z,23.06
2023-05-01T09:12:54.531Z,21.60
2023-05-01T09:13:54.524Z,20.60
2023-05-01T09:14:54.493Z,20.55
2023-05-01T09:15:54.585Z,20.93
2023-05-01T09:16:54.615Z,21.37
2023-05-01T09:17:54.489Z,20.25
2023-05-01T09:18:54.463Z,19.81
2023-05-01T09:19:54.589Z,19.69
2023-05-01T09:20:54.471Z,19.47
2023-05-01T09:21:54.434Z,19.56
2023-05-01T09:22:54.416Z,19.73
2023-05-01T09:23:54.412Z,19.39
2023-05-01T09:24:54.386Z,19.86
2023-05-01T09:25:54.425Z,20.47
2023-05-01T09:26:54.362Z,20.04
2023-05-01T09:27:54.370Z,20.60
2023-05-01T09:28:54.378Z,20.72
2023-05-01T09:29:54.464Z,21.52
2023-05-01T09:30:54.372Z,21.99
2023-05-01T09:31:54.423Z,22.22
2023-05-01T09:32:54.347Z,21.82
2023-05-01T09:33:54.297Z,21.79
2023-05-01T09:34:54.286Z,21.82
2023-05-01T09:35:54.371Z,22.22
2023-05-01T09:36:54.273Z,22.10
2023-05-01T09:37:54.252Z,21.48
2023-05-01T09:38:54.233Z,21.77
2023-05-01T09:39:54.494Z,21.42
2023-05-01T09:40:54.246Z,20.99
2023-05-01T09:41:54.222Z,21.72
2023-05-01T09:42:54.224Z,21.15
2023-05-01T09:43:54.202Z,21.62
2023-05-01T09:44:54.205Z,21.82
2023-05-01T09:45:54.330Z,22.11
2023-05-01T09:46:54.161Z,22.08
2023-05-01T09:47:54.205Z,21.43
2023-05-01T09:48:54.150Z,20.74
2023-05-01T09:49:54.380Z,20.84
2023-05-01T09:50:54.312Z,21.50
2023-05-01T09:51:54.117Z,21.54
2023-05-01T09:52:54.080Z,21.42
2023-05-01T09:53:54.088Z,21.72
2023-05-01T09:54:54.063Z,21.48
2023-05-01T09:55:54.085Z,21.40
2023-05-01T09:56:54.081Z,22.18
2023-05-01T09:57:54.068Z,22.60
2023-05-01T09:58:54.033Z,23.37
2023-05-01T09:59:54.274Z,22.68
2023-05-01T10:00:54.020Z,23.20
2023-05-01T10:01:54.112Z,22.65
2023-05-01T10:02:54.132Z,22.22
2023-05-01T10:03:54.128Z,22.33
2023-05-01T10:04:53.950Z,21.45
2023-05-01T10:05:53.955Z,21.89
2023-05-01T10:06:54.028Z,21.92
2023-05-01T10:07:53.933Z,20.87
2023-05-01T10:08:53.921Z,20.69
2023-05-01T10:09:53.986Z,20.34
2023-05-01T10:10:53.927Z,20.31
2023-05-01T10:11:53.967Z,20.14
2023-05-01T10:12:53.917Z,20.02
2023-05-01T10:13:53.863Z,20.19
2023-05-01T10:14:53.884Z,20.92
2023-05-01T10:15:53.893Z,20.60
2023-05-01T10:16:53.940Z,20.19
2023-05-01T10:17:54.412Z,20.62
2023-05-01T10:18:53.820Z,20.62
2023-05-01T10:19:53.809Z,20.99
2023-05-01T10:20:53.792Z,21.33
2023-05-01T10:21:53.812Z,20.67
2023-05-01T10:22:53.764Z,20.77
2023-05-01T10:23:53.772Z,20.87
2023-05-01T10:24:53.744Z,20.69
2023-05-01T10:25:53.790Z,20.80
2023-05-01T10:26:53.769Z,21.14
2023-05-01T10:27:53.715Z,21.06
2023-05-01T10:28:53.717Z,20.16
2023-05-01T10:29:53.765Z,20.13
2023-05-01T10:30:53.690Z,20.25
2023-05-01T10:31:53.797Z,20.70
2023-05-01T10:32:53.674Z,21.06
2023-05-01T10:33:53.644Z,21.40
2023-05-01T10:34:53.765Z,20.96
2023-05-01T10:35:53.655Z,21.05
2023-05-01T10:36:53.689Z,21.40
2023-05-01T10:37:53.672Z,21.42
2023-05-01T10:38:53.613Z,21.54
2023-05-01T10:39:53.591Z,21.76
2023-05-01T10:40:53.583Z,22.06
2023-05-01T10:41:53.596Z,22.28
2023-05-01T10:42:53.598Z,22.32
2023-05-01T10:43:53.568Z,21.75
2023-05-01T10:44:53.583Z,21.96
2023-05-01T10:45:53.567Z,20.90
2023-05-01T10:46:53.609Z,20.92
2023-05-01T10:47:53.579Z,21.02
2023-05-01T10:48:53.505Z,21.50
2023-05-01T10:49:53.510Z,21.80
2023-05-01T10:50:53.480Z,21.60
2023-05-01T10:51:53.515Z,21.43
2023-05-01T10:52:53.450Z,21.33
2023-05-01T10:53:53.424Z,21.60
2023-05-01T10:54:53.472Z,21.09
2023-05-01T10:55:53.427Z,20.56
2023-05-01T10:56:53.443Z,20.72
2023-05-01T10:57:53.408Z,20.82
2023-05-01T10:58:53.414Z,20.56
2023-05-01T10:59:53.373Z,20.65
2023-05-01T11:00:53.373Z,21.27
2023-05-01T11:01:53.540Z,21.22
2023-05-01T11:02:53.340Z,21.64
2023-05-01T11:03:53.333Z,21.67
2023-05-01T11:04:53.344Z,22.17
2023-05-01T11:05:53.401Z,22.30
2023-05-01T11:06:53.451Z,21.51
2023-05-01T11:07:53.290Z,22.15
2023-05-01T11:08:53.276Z,22.23
2023-05-01T11:09:53.276Z,22.45
2023-05-01T11:10:53.272Z,22.32
2023-05-01T11:11:53.271Z,21.85
2023-05-01T11:12:53.235Z,21.03
2023-05-01T11:13:53.236Z,21.48
2023-05-01T11:14:53.254Z,21.67
2023-05-01T11:15:53.242Z,21.76
2023-05-01T11:16:53.292Z,22.07
2023-05-01T11:17:53.245Z,22.15
2023-05-01T11:18:53.176Z,21.58
2023-05-01T11:19:53.172Z,21.42
2023-05-01T11:20:53.171Z,21.29
2023-05-01T11:21:53.202Z,21.52
2023-05-01T11:22:53.127Z,21.91
2023-05-01T11:23:53.137Z,22.18
2023-05-01T11:24:53.109Z,21.91
2023-05-01T11:25:53.101Z,21.93
2023-05-01T11:26:53.126Z,22.11
2023-05-01T11:27:53.129Z,22.35
2023-05-01T11:28:53.061Z,22.32
2023-05-01T11:29:53.058Z,21.42
2023-05-01T11:30:53.025Z,21.25
2023-05-01T11:31:53.116Z,20.82
2023-05-01T11:32:53.085Z,20.56
2023-05-01T11:33:53.027Z,21.05
2023-05-01T11:34:53.029Z,21.82
2023-05-01T11:35:52.988Z,22.45
2023-05-01T11:36:53.008Z,22.30
2023-05-01T11:37:52.971Z,22.35
2023-05-01T11:38:52.949Z,21.67
2023-05-01T11:39:52.970Z,21.82
2023-05-01T11:40:52.939Z,22.13
2023-05-01T11:41:52.986Z,21.85
2023-05-01T11:42:52.957Z,21.51
2023-05-01T11:43:52.930Z,21.79
2023-05-01T11:44:52.883Z,22.00
2023-05-01T11:45:52.987Z,22.00
2023-05-01T11:46:52.875Z,22.59
2023-05-01T11:47:52.954Z,23.15
2023-05-01T11:48:52.878Z,23.46
2023-05-01T11:49:52.857Z,23.09
2023-05-01T11:50:52.829Z,23.32
2023-05-01T11:51:52.830Z,23.51
2023-05-01T11:52:52.861Z,23.71
2023-05-01T11:53:52.838Z,22.85
2023-05-01T11:54:52.793Z,22.36
2023-05-01T11:55:52.797Z,22.17
2023-05-01T11:56:52.759Z,21.88
2023-05-01T11:57:52.792Z,21.00
2023-05-01T11:58:52.731Z,20.69
2023-05-01T11:59:52.729Z,20.85
2023-05-01T12:00:52.719Z,20.50
2023-05-01T12:01:52.812Z,20.37
2023-05-01T12:02:52.831Z,20.63
2023-05-01T12:03:52.804Z,20.92
2023-05-01T12:04:52.926Z,21.30
2023-05-01T12:05:52.689Z,21.92
2023-05-01T12:06:52.767Z,22.54
2023-05-01T12:07:52.713Z,23.12
2023-05-01T12:08:52.697Z,23.77
2023-05-01T12:09:52.654Z,24.47
2023-05-01T12:10:52.732Z,24.18
2023-05-01T12:11:53.139Z,24.48
2023-05-01T12:12:52.670Z,24.05
2023-05-01T12:13:52.627Z,24.13
2023-05-01T12:14:52.575Z,23.80
2023-05-01T12:15:52.633Z,23.98
2023-05-01T12:16:52.654Z,24.24
2023-05-01T12:17:52.685Z,24.10
2023-05-01T12:18:52.610Z,23.46
2023-05-01T12:19:52.568Z,23.25
2023-05-01T12:20:52.536Z,23.06
2023-05-01T12:21:52.499Z,22.73
2023-05-01T12:22:52.530Z,23.12
2023-05-01T12:23:52.468Z,23.08
2023-05-01T12:24:52.488Z,23.03
2023-05-01T12:25:52.465Z,23.59
2023-05-01T12:26:52.445Z,23.23
2023-05-01T12:27:52.486Z,23.06
2023-05-01T12:28:52.431Z,23.78
2023-05-01T12:29:52.416Z,24.18
2023-05-01T12:30:52.416Z,24.30
2023-05-01T12:31:52.471Z,24.03
2023-05-01T12:32:52.472Z,23.69
2023-05-01T12:33:52.385Z,23.46
2023-05-01T12:34:52.385Z,22.93
2023-05-01T12:35:52.411Z,22.78
2023-05-01T12:36:52.356Z,22.57
2023-05-01T12:37:52.396Z,23.06
2023-05-01T12:38:52.350Z,22.38
2023-05-01T12:39:52.303Z,22.83
2023-05-01T12:40:52.316Z,23.15
2023-05-01T12:41:52.292Z,23.34
2023-05-01T12:42:52.319Z,23.69
2023-05-01T12:43:52.288Z,23.69
2023-05-01T12:44:52.296Z,23.83
2023-05-01T12:45:52.268Z,23.09
2023-05-01T12:46:52.332Z,22.57
2023-05-01T12:47:52.285Z,22.94
2023-05-01T12:48:54.317Z,23.34
2023-05-01T12:49:52.208Z,23.78
2023-05-01T12:50:52.191Z,23.27
2023-05-01T12:51:52.212Z,22.66
2023-05-01T12:52:52.228Z,22.20
2023-05-01T12:53:52.196Z,22.45
2023-05-01T12:54:52.126Z,22.87
2023-05-01T12:55:52.121Z,22.78
2023-05-01T12:56:52.125Z,23.23
2023-05-01T12:57:52.161Z,23.31
2023-05-01T12:58:52.138Z,22.98
2023-05-01T12:59:52.112Z,23.28
2023-05-01T13:00:52.099Z,23.20
2023-05-01T13:01:52.125Z,22.88